createdAt,value
2019-05-25T00:00:25.405Z,0.00
2019-05-25T00:01:25.424Z,0.00
2019-05-25T00:02:25.442Z,0.00
2019-05-25T00:03:25.460Z,0.00
2019-05-25T00:04:25.486Z,0.00
2019-05-25T00:05:25.503Z,0.00
2019-05-25T00:06:25.529Z,0.00
2019-05-25T00:07:25.547Z,0.00
2019-05-25T00:08:25.569Z,0.00
2019-05-25T00:09:25.588Z,0.00
2019-05-25T00:10:25.612Z,0.00
2019-05-25T00:11:25.628Z,0.00
2019-05-25T00:12:25.652Z,0.00
2019-05-25T00:13:25.779Z,0.00
2019-05-25T00:14:25.692Z,0.00
2019-05-25T00:15:25.711Z,0.00
2019-05-25T00:16:25.733Z,0.00
2019-05-25T00:17:25.755Z,0.00
2019-05-25T00:18:25.773Z,0.00
2019-05-25T00:19:25.799Z,0.00
2019-05-25T00:20:25.813Z,0.00
2019-05-25T00:21:25.837Z,0.00
2019-05-25T00:22:25.856Z,0.00
2019-05-25T00:23:25.875Z,0.00
2019-05-25T00:24:25.894Z,0.00
2019-05-25T00:25:25.915Z,0.00
2019-05-25T00:26:25.939Z,0.00
2019-05-25T00:27:25.958Z,0.00
2019-05-25T00:28:25.977Z,0.00
2019-05-25T00:29:26.000Z,0.00
2019-05-25T00:30:26.025Z,0.00
2019-05-25T00:31:26.040Z,0.00
2019-05-25T00:32:26.063Z,0.00
2019-05-25T00:33:26.084Z,0.00
2019-05-25T00:34:26.102Z,0.00
2019-05-25T00:35:26.121Z,0.00
2019-05-25T00:36:26.142Z,0.00
2019-05-25T00:37:26.163Z,0.00
2019-05-25T00:38:26.186Z,0.00
2019-05-25T00:39:26.204Z,0.00
2019-05-25T00:40:26.228Z,0.00
2019-05-25T00:41:26.245Z,0.00
2019-05-25T00:42:26.265Z,0.00
2019-05-25T00:43:26.289Z,0.00
2019-05-25T00:44:26.309Z,0.00
2019-05-25T00:45:26.326Z,0.00
2019-05-25T00:46:26.347Z,0.00
2019-05-25T00:47:26.371Z,0.00
2019-05-25T00:48:26.386Z,0.00
2019-05-25T00:49:26.408Z,0.00
2019-05-25T00:50:26.427Z,0.00
2019-05-25T00:51:26.446Z,0.00
2019-05-25T00:52:26.471Z,0.00
2019-05-25T00:53:26.489Z,0.00
2019-05-25T00:54:28.247Z,0.00
2019-05-25T00:55:26.531Z,0.00
2019-05-25T00:56:26.547Z,0.00
2019-05-25T00:57:26.585Z,0.00
2019-05-25T00:58:26.643Z,0.00
2019-05-25T00:59:26.643Z,0.00
2019-05-25T01:00:26.653Z,0.00
2019-05-25T01:01:26.712Z,0.00
2019-05-25T01:02:26.720Z,0.00
2019-05-25T01:03:26.712Z,0.00
2019-05-25T01:04:26.711Z,0.00
2019-05-25T01:05:26.732Z,0.00
2019-05-25T01:06:26.752Z,0.00
2019-05-25T01:07:26.770Z,0.00
2019-05-25T01:08:26.790Z,0.00
2019-05-25T01:09:26.810Z,0.00
2019-05-25T01:10:26.830Z,0.00
2019-05-25T01:11:26.851Z,0.00
2019-05-25T01:12:26.871Z,0.00
2019-05-25T01:13:26.888Z,0.00
2019-05-25T01:14:26.908Z,0.00
2019-05-25T01:15:26.932Z,0.00
2019-05-25T01:16:26.949Z,0.00
2019-05-25T01:17:26.969Z,0.00
2019-05-25T01:18:26.993Z,0.00
2019-05-25T01:19:27.007Z,0.00
2019-05-25T01:20:27.030Z,0.00
2019-05-25T01:21:27.049Z,0.00
2019-05-25T01:22:27.069Z,0.00
2019-05-25T01:23:27.087Z,0.00
2019-05-25T01:24:41.262Z,0.00
2019-05-25T01:25:27.132Z,0.00
2019-05-25T01:26:27.153Z,0.00
2019-05-25T01:27:27.174Z,0.00
2019-05-25T01:28:27.188Z,0.00
2019-05-25T01:29:27.214Z,0.00
2019-05-25T01:30:27.227Z,0.00
2019-05-25T01:31:27.248Z,0.00
2019-05-25T01:32:27.264Z,0.00
2019-05-25T01:33:27.287Z,0.00
2019-05-25T01:34:27.309Z,0.00
2019-05-25T01:35:27.329Z,0.00
2019-05-25T01:36:27.348Z,0.00
2019-05-25T01:37:27.365Z,0.00
2019-05-25T01:38:27.386Z,0.00
2019-05-25T01:39:27.403Z,0.00
2019-05-25T01:40:27.426Z,0.00
2019-05-25T01:41:27.448Z,0.00
2019-05-25T01:42:27.469Z,0.00
2019-05-25T01:43:27.483Z,0.00
2019-05-25T01:44:27.506Z,0.00
2019-05-25T01:45:27.523Z,0.00
2019-05-25T01:46:27.542Z,0.00
2019-05-25T01:47:27.563Z,0.00
2019-05-25T01:48:27.581Z,0.00
2019-05-25T01:49:27.599Z,0.00
2019-05-25T01:50:27.620Z,0.00
2019-05-25T01:51:27.638Z,0.00
2019-05-25T01:52:27.662Z,0.00
2019-05-25T01:53:27.680Z,0.00
2019-05-25T01:54:27.700Z,0.00
2019-05-25T01:55:27.719Z,0.00
2019-05-25T01:56:27.749Z,0.00
2019-05-25T01:57:27.756Z,0.00
2019-05-25T01:58:27.778Z,0.00
2019-05-25T01:59:27.856Z,0.00
2019-05-25T02:00:27.815Z,0.00
2019-05-25T02:01:27.841Z,0.00
2019-05-25T02:02:27.855Z,0.00
2019-05-25T02:03:27.873Z,0.00
2019-05-25T02:04:27.894Z,0.00
2019-05-25T02:05:27.913Z,0.00
2019-05-25T02:06:27.932Z,0.00
2019-05-25T02:07:27.953Z,0.00
2019-05-25T02:08:27.971Z,0.00
2019-05-25T02:09:27.990Z,0.00
2019-05-25T02:10:28.010Z,0.00
2019-05-25T02:11:28.029Z,0.00
2019-05-25T02:12:28.048Z,0.00
2019-05-25T02:13:28.069Z,0.00
2019-05-25T02:14:28.087Z,0.00
2019-05-25T02:15:28.106Z,0.00
2019-05-25T02:16:28.126Z,0.00
2019-05-25T02:17:28.151Z,0.00
2019-05-25T02:18:28.169Z,0.00
2019-05-25T02:19:28.179Z,0.00
2019-05-25T02:20:28.208Z,0.00
2019-05-25T02:21:28.221Z,0.00
2019-05-25T02:22:28.242Z,0.00
2019-05-25T02:23:28.260Z,0.00
2019-05-25T02:24:28.279Z,0.00
2019-05-25T02:25:28.298Z,0.00
2019-05-25T02:26:28.320Z,0.00
2019-05-25T02:27:28.335Z,0.00
2019-05-25T02:28:28.357Z,0.00
2019-05-25T02:29:28.373Z,0.00
2019-05-25T02:30:28.401Z,0.00
2019-05-25T02:31:28.411Z,0.00
2019-05-25T02:32:28.431Z,0.00
2019-05-25T02:33:28.536Z,0.00
2019-05-25T02:34:28.538Z,0.00
2019-05-25T02:35:28.551Z,0.00
2019-05-25T02:36:28.534Z,0.00
2019-05-25T02:37:28.612Z,0.00
2019-05-25T02:38:28.609Z,0.00
2019-05-25T02:39:28.621Z,0.00
2019-05-25T02:40:28.773Z,0.00
2019-05-25T02:41:28.603Z,0.00
2019-05-25T02:42:28.622Z,0.00
2019-05-25T02:43:28.643Z,0.00
2019-05-25T02:44:28.662Z,0.00
2019-05-25T02:45:28.680Z,5.63
2019-05-25T02:46:28.700Z,5.63
2019-05-25T02:47:28.716Z,5.63
2019-05-25T02:48:28.738Z,5.63
2019-05-25T02:49:28.767Z,5.63
2019-05-25T02:50:28.773Z,5.63
2019-05-25T02:51:28.794Z,5.63
2019-05-25T02:52:28.810Z,5.63
2019-05-25T02:53:28.829Z,11.25
2019-05-25T02:54:28.848Z,11.25
2019-05-25T02:55:34.396Z,11.25
2019-05-25T02:56:28.885Z,11.25
2019-05-25T02:57:28.904Z,11.25
2019-05-25T02:58:28.921Z,11.25
2019-05-25T02:59:28.943Z,11.25
2019-05-25T03:00:28.961Z,11.25
2019-05-25T03:01:28.981Z,11.25
2019-05-25T03:02:29.014Z,16.88
2019-05-25T03:03:29.017Z,16.88
2019-05-25T03:04:29.035Z,16.88
2019-05-25T03:05:29.055Z,16.88
2019-05-25T03:06:29.073Z,16.88
2019-05-25T03:07:29.091Z,16.88
2019-05-25T03:08:29.110Z,22.50
2019-05-25T03:09:29.129Z,22.50
2019-05-25T03:10:29.151Z,22.50
2019-05-25T03:11:29.166Z,22.50
2019-05-25T03:12:29.184Z,22.50
2019-05-25T03:13:29.232Z,28.13
2019-05-25T03:14:29.258Z,28.13
2019-05-25T03:15:29.246Z,28.13
2019-05-25T03:16:29.257Z,28.13
2019-05-25T03:17:29.279Z,33.75
2019-05-25T03:18:29.297Z,33.75
2019-05-25T03:19:29.315Z,33.75
2019-05-25T03:20:29.331Z,33.75
2019-05-25T03:21:29.351Z,33.75
2019-05-25T03:22:29.371Z,39.38
2019-05-25T03:23:29.388Z,39.38
2019-05-25T03:24:29.459Z,39.38
2019-05-25T03:25:29.425Z,39.38
2019-05-25T03:26:29.441Z,45.00
2019-05-25T03:27:29.462Z,45.00
2019-05-25T03:28:29.481Z,50.63
2019-05-25T03:29:29.500Z,50.63
2019-05-25T03:30:29.519Z,50.63
2019-05-25T03:31:29.537Z,56.25
2019-05-25T03:32:29.555Z,56.25
2019-05-25T03:33:29.577Z,56.25
2019-05-25T03:34:29.592Z,56.25
2019-05-25T03:35:29.610Z,61.88
2019-05-25T03:36:29.629Z,61.88
2019-05-25T03:37:29.651Z,61.88
2019-05-25T03:38:29.666Z,61.88
2019-05-25T03:39:29.684Z,67.50
2019-05-25T03:40:29.701Z,67.50
2019-05-25T03:41:29.718Z,67.50
2019-05-25T03:42:29.738Z,67.50
2019-05-25T03:43:29.755Z,73.13
2019-05-25T03:44:29.774Z,73.13
2019-05-25T03:45:29.798Z,78.75
2019-05-25T03:46:29.813Z,78.75
2019-05-25T03:47:29.831Z,84.38
2019-05-25T03:48:29.850Z,84.38
2019-05-25T03:49:29.866Z,84.38
2019-05-25T03:50:29.885Z,90.00
2019-05-25T03:51:29.903Z,95.63
2019-05-25T03:52:29.920Z,95.63
2019-05-25T03:53:29.940Z,101.25
2019-05-25T03:54:29.958Z,106.88
2019-05-25T03:55:29.979Z,112.50
2019-05-25T03:56:29.996Z,118.13
2019-05-25T03:57:30.019Z,123.75
2019-05-25T03:58:30.032Z,129.38
2019-05-25T03:59:30.049Z,135.00
2019-05-25T04:00:30.067Z,140.63
2019-05-25T04:01:30.086Z,140.63
2019-05-25T04:02:30.107Z,146.25
2019-05-25T04:03:30.123Z,151.88
2019-05-25T04:04:30.142Z,157.50
2019-05-25T04:05:30.160Z,168.75
2019-05-25T04:06:30.177Z,174.38
2019-05-25T04:07:30.196Z,180.00
2019-05-25T04:08:30.216Z,191.25
2019-05-25T04:09:30.233Z,196.88
2019-05-25T04:10:30.251Z,202.50
2019-05-25T04:11:30.270Z,202.50
2019-05-25T04:12:30.290Z,208.13
2019-05-25T04:13:30.306Z,208.13
2019-05-25T04:14:30.343Z,213.75
2019-05-25T04:15:30.409Z,219.38
2019-05-25T04:16:30.411Z,213.75
2019-05-25T04:17:30.417Z,219.38
2019-05-25T04:18:30.475Z,219.38
2019-05-25T04:19:30.476Z,219.38
2019-05-25T04:20:30.469Z,219.38
2019-05-25T04:21:30.474Z,213.75
2019-05-25T04:22:30.472Z,213.75
2019-05-25T04:23:30.492Z,213.75
2019-05-25T04:24:30.512Z,213.75
2019-05-25T04:25:30.529Z,208.13
2019-05-25T04:26:30.550Z,208.13
2019-05-25T04:27:30.569Z,208.13
2019-05-25T04:28:30.585Z,208.13
2019-05-25T04:29:30.604Z,208.13
2019-05-25T04:30:30.622Z,202.50
2019-05-25T04:31:30.641Z,202.50
2019-05-25T04:32:30.659Z,208.13
2019-05-25T04:33:30.679Z,208.13
2019-05-25T04:34:30.697Z,208.13
2019-05-25T04:35:30.716Z,213.75
2019-05-25T04:36:30.733Z,213.75
2019-05-25T04:37:30.754Z,213.75
2019-05-25T04:38:30.772Z,213.75
2019-05-25T04:39:30.788Z,213.75
2019-05-25T04:40:30.808Z,213.75
2019-05-25T04:41:30.828Z,213.75
2019-05-25T04:42:30.844Z,213.75
2019-05-25T04:43:30.865Z,213.75
2019-05-25T04:44:30.885Z,213.75
2019-05-25T04:45:30.901Z,208.13
2019-05-25T04:46:30.922Z,208.13
2019-05-25T04:47:30.940Z,208.13
2019-05-25T04:48:30.960Z,208.13
2019-05-25T04:49:30.977Z,208.13
2019-05-25T04:50:31.042Z,208.13
2019-05-25T04:51:31.022Z,202.50
2019-05-25T04:52:31.035Z,202.50
2019-05-25T04:53:31.053Z,202.50
2019-05-25T04:54:31.071Z,196.88
2019-05-25T04:55:31.091Z,196.88
2019-05-25T04:56:39.358Z,191.25
2019-05-25T04:57:31.129Z,191.25
2019-05-25T04:58:31.149Z,191.25
2019-05-25T04:59:31.167Z,185.63
2019-05-25T05:00:31.195Z,185.63
2019-05-25T05:01:31.208Z,185.63
2019-05-25T05:02:31.223Z,185.63
2019-05-25T05:03:31.241Z,185.63
2019-05-25T05:04:31.260Z,191.25
2019-05-25T05:05:31.279Z,185.63
2019-05-25T05:06:31.306Z,185.63
2019-05-25T05:07:31.319Z,185.63
2019-05-25T05:08:34.850Z,185.63
2019-05-25T05:09:31.354Z,185.63
2019-05-25T05:10:31.373Z,196.88
2019-05-25T05:11:31.390Z,202.50
2019-05-25T05:12:31.410Z,208.13
2019-05-25T05:13:31.435Z,202.50
2019-05-25T05:14:31.467Z,213.75
2019-05-25T05:15:31.469Z,213.75
2019-05-25T05:16:31.486Z,230.63
2019-05-25T05:17:31.506Z,253.13
2019-05-25T05:18:31.523Z,303.75
2019-05-25T05:19:31.546Z,303.75
2019-05-25T05:20:31.563Z,270.00
2019-05-25T05:21:31.583Z,292.50
2019-05-25T05:22:31.601Z,478.13
2019-05-25T05:23:31.620Z,675.00
2019-05-25T05:24:31.638Z,832.50
2019-05-25T05:25:31.656Z,759.38
2019-05-25T05:26:31.680Z,540.00
2019-05-25T05:27:31.696Z,388.13
2019-05-25T05:28:31.716Z,270.00
2019-05-25T05:29:31.735Z,219.38
2019-05-25T05:30:31.754Z,208.13
2019-05-25T05:31:31.771Z,208.13
2019-05-25T05:32:31.795Z,202.50
2019-05-25T05:33:31.812Z,202.50
2019-05-25T05:34:31.834Z,264.38
2019-05-25T05:35:31.857Z,360.00
2019-05-25T05:36:31.878Z,382.50
2019-05-25T05:37:31.893Z,421.88
2019-05-25T05:38:31.911Z,410.63
2019-05-25T05:39:31.929Z,421.88
2019-05-25T05:40:31.949Z,360.00
2019-05-25T05:41:31.971Z,421.88
2019-05-25T05:42:31.995Z,275.63
2019-05-25T05:43:32.008Z,309.38
2019-05-25T05:44:32.030Z,264.38
2019-05-25T05:45:32.050Z,264.38
2019-05-25T05:46:32.070Z,219.38
2019-05-25T05:47:32.088Z,241.88
2019-05-25T05:48:32.109Z,241.88
2019-05-25T05:49:32.130Z,230.63
2019-05-25T05:50:32.148Z,286.88
2019-05-25T05:51:32.167Z,281.25
2019-05-25T05:52:32.185Z,343.13
2019-05-25T05:53:32.222Z,253.13
2019-05-25T05:54:32.289Z,264.38
2019-05-25T05:55:32.286Z,320.63
2019-05-25T05:56:32.344Z,264.38
2019-05-25T05:57:32.345Z,258.75
2019-05-25T05:58:32.361Z,286.88
2019-05-25T05:59:32.391Z,405.00
2019-05-25T06:00:32.362Z,444.38
2019-05-25T06:01:32.363Z,309.38
2019-05-25T06:02:32.383Z,331.88
2019-05-25T06:03:32.400Z,416.25
2019-05-25T06:04:32.424Z,483.75
2019-05-25T06:05:32.442Z,421.88
2019-05-25T06:06:32.460Z,410.63
2019-05-25T06:07:32.483Z,393.75
2019-05-25T06:08:32.501Z,365.63
2019-05-25T06:09:32.521Z,540.00
2019-05-25T06:10:32.541Z,573.75
2019-05-25T06:11:32.560Z,455.63
2019-05-25T06:12:32.580Z,523.13
2019-05-25T06:13:32.597Z,478.13
2019-05-25T06:14:32.619Z,793.13
2019-05-25T06:15:32.641Z,1175.63
2019-05-25T06:16:32.660Z,995.63
2019-05-25T06:17:32.676Z,742.50
2019-05-25T06:18:32.702Z,1158.75
2019-05-25T06:19:32.719Z,753.75
2019-05-25T06:20:32.739Z,466.88
2019-05-25T06:21:32.760Z,534.38
2019-05-25T06:22:32.780Z,1220.63
2019-05-25T06:23:32.800Z,1203.75
2019-05-25T06:24:32.821Z,1344.38
2019-05-25T06:25:32.847Z,815.63
2019-05-25T06:26:32.863Z,1203.75
2019-05-25T06:27:32.882Z,1220.63
2019-05-25T06:28:32.904Z,1136.25
2019-05-25T06:29:32.926Z,1080.00
2019-05-25T06:30:32.951Z,1383.75
2019-05-25T06:31:32.967Z,607.50
2019-05-25T06:32:32.991Z,883.13
2019-05-25T06:33:33.010Z,1816.88
2019-05-25T06:34:33.031Z,1203.75
2019-05-25T06:35:33.052Z,1783.13
2019-05-25T06:36:33.072Z,2261.25
2019-05-25T06:37:33.097Z,1282.50
2019-05-25T06:38:33.119Z,1040.63
2019-05-25T06:39:33.140Z,933.75
2019-05-25T06:40:33.162Z,804.38
2019-05-25T06:41:33.183Z,714.38
2019-05-25T06:42:33.206Z,658.13
2019-05-25T06:43:33.227Z,641.25
2019-05-25T06:44:33.286Z,759.38
2019-05-25T06:45:33.289Z,894.38
2019-05-25T06:46:33.297Z,967.50
2019-05-25T06:47:33.317Z,2756.25
2019-05-25T06:48:33.342Z,956.25
2019-05-25T06:49:33.361Z,815.63
2019-05-25T06:50:33.385Z,759.38
2019-05-25T06:51:33.406Z,714.38
2019-05-25T06:52:33.427Z,624.38
2019-05-25T06:53:33.454Z,641.25
2019-05-25T06:54:33.479Z,753.75
2019-05-25T06:55:33.497Z,776.25
2019-05-25T06:56:33.518Z,810.00
2019-05-25T06:57:42.531Z,798.75
2019-05-25T06:58:33.566Z,821.25
2019-05-25T06:59:33.586Z,883.13
2019-05-25T07:00:33.614Z,2109.38
2019-05-25T07:01:33.632Z,911.25
2019-05-25T07:02:33.653Z,1001.25
2019-05-25T07:03:33.710Z,866.25
2019-05-25T07:04:33.700Z,866.25
2019-05-25T07:05:33.722Z,950.63
2019-05-25T07:06:33.748Z,855.00
2019-05-25T07:07:33.765Z,742.50
2019-05-25T07:08:33.790Z,832.50
2019-05-25T07:09:33.815Z,714.38
2019-05-25T07:10:33.837Z,613.13
2019-05-25T07:11:33.860Z,669.38
2019-05-25T07:12:33.881Z,900.00
2019-05-25T07:13:33.909Z,1006.88
2019-05-25T07:14:33.930Z,1001.25
2019-05-25T07:15:33.950Z,826.88
2019-05-25T07:16:33.972Z,781.88
2019-05-25T07:17:33.996Z,691.88
2019-05-25T07:18:35.519Z,675.00
2019-05-25T07:19:34.041Z,793.13
2019-05-25T07:20:34.065Z,871.88
2019-05-25T07:21:34.087Z,860.63
2019-05-25T07:22:34.186Z,849.38
2019-05-25T07:23:34.179Z,939.38
2019-05-25T07:24:34.177Z,990.00
2019-05-25T07:25:34.238Z,883.13
2019-05-25T07:26:34.239Z,978.75
2019-05-25T07:27:34.237Z,1023.75
2019-05-25T07:28:34.253Z,939.38
2019-05-25T07:29:34.282Z,826.88
2019-05-25T07:30:34.295Z,686.25
2019-05-25T07:31:34.330Z,618.75
2019-05-25T07:32:34.338Z,708.75
2019-05-25T07:33:34.362Z,843.75
2019-05-25T07:34:34.385Z,900.00
2019-05-25T07:35:34.408Z,956.25
2019-05-25T07:36:34.430Z,945.00
2019-05-25T07:37:34.453Z,973.13
2019-05-25T07:38:34.476Z,1001.25
2019-05-25T07:39:34.498Z,1158.75
2019-05-25T07:40:34.525Z,1203.75
2019-05-25T07:41:34.546Z,1400.63
2019-05-25T07:42:34.568Z,1181.25
2019-05-25T07:43:34.592Z,1181.25
2019-05-25T07:44:34.615Z,1057.50
2019-05-25T07:45:34.640Z,990.00
2019-05-25T07:46:34.660Z,928.13
2019-05-25T07:47:34.683Z,1023.75
2019-05-25T07:48:34.710Z,1102.50
2019-05-25T07:49:34.731Z,1040.63
2019-05-25T07:50:34.755Z,1023.75
2019-05-25T07:51:34.779Z,922.50
2019-05-25T07:52:34.806Z,855.00
2019-05-25T07:53:34.822Z,916.88
2019-05-25T07:54:34.847Z,900.00
2019-05-25T07:55:34.870Z,877.50
2019-05-25T07:56:34.895Z,810.00
2019-05-25T07:57:34.917Z,793.13
2019-05-25T07:58:34.942Z,753.75
2019-05-25T07:59:34.964Z,748.13
2019-05-25T08:00:34.985Z,933.75
2019-05-25T08:01:35.009Z,855.00
2019-05-25T08:02:35.040Z,753.75
2019-05-25T08:03:35.059Z,759.38
2019-05-25T08:04:35.082Z,793.13
2019-05-25T08:05:35.102Z,765.00
2019-05-25T08:06:35.127Z,691.88
2019-05-25T08:07:35.148Z,736.88
2019-05-25T08:08:35.172Z,810.00
2019-05-25T08:09:35.195Z,703.13
2019-05-25T08:10:35.217Z,573.75
2019-05-25T08:11:35.244Z,523.13
2019-05-25T08:12:35.263Z,511.88
2019-05-25T08:13:35.292Z,472.50
2019-05-25T08:14:35.385Z,438.75
2019-05-25T08:15:35.333Z,478.13
2019-05-25T08:16:35.354Z,540.00
2019-05-25T08:17:35.380Z,517.50
2019-05-25T08:18:35.401Z,495.00
2019-05-25T08:19:35.423Z,472.50
2019-05-25T08:20:35.446Z,573.75
2019-05-25T08:21:35.467Z,686.25
2019-05-25T08:22:35.493Z,748.13
2019-05-25T08:23:35.515Z,826.88
2019-05-25T08:24:35.538Z,843.75
2019-05-25T08:25:35.560Z,748.13
2019-05-25T08:26:35.581Z,669.38
2019-05-25T08:27:35.602Z,703.13
2019-05-25T08:28:35.626Z,736.88
2019-05-25T08:29:35.652Z,770.63
2019-05-25T08:30:35.671Z,900.00
2019-05-25T08:31:35.690Z,973.13
2019-05-25T08:32:35.717Z,1006.88
2019-05-25T08:33:35.743Z,1153.13
2019-05-25T08:34:35.762Z,1125.00
2019-05-25T08:35:35.781Z,961.88
2019-05-25T08:36:35.806Z,759.38
2019-05-25T08:37:35.833Z,624.38
2019-05-25T08:38:35.898Z,528.75
2019-05-25T08:39:35.873Z,500.63
2019-05-25T08:40:35.896Z,523.13
2019-05-25T08:41:35.919Z,495.00
2019-05-25T08:42:35.943Z,410.63
2019-05-25T08:43:35.964Z,382.50
2019-05-25T08:44:35.991Z,393.75
2019-05-25T08:45:36.092Z,416.25
2019-05-25T08:46:36.105Z,399.38
2019-05-25T08:47:36.078Z,421.88
2019-05-25T08:48:36.144Z,405.00
2019-05-25T08:49:36.135Z,388.13
2019-05-25T08:50:38.609Z,427.50
2019-05-25T08:51:36.144Z,421.88
2019-05-25T08:52:36.168Z,410.63
2019-05-25T08:53:41.328Z,427.50
2019-05-25T08:54:36.218Z,438.75
2019-05-25T08:55:36.235Z,478.13
2019-05-25T08:56:36.255Z,472.50
2019-05-25T08:57:36.329Z,455.63
2019-05-25T08:58:48.043Z,523.13
2019-05-25T08:59:36.324Z,663.75
2019-05-25T09:00:36.348Z,798.75
2019-05-25T09:01:36.369Z,1018.13
2019-05-25T09:02:36.391Z,1186.88
2019-05-25T09:03:36.414Z,1366.88
2019-05-25T09:04:36.437Z,1513.13
2019-05-25T09:05:36.459Z,1451.25
2019-05-25T09:06:36.501Z,1468.13
2019-05-25T09:07:36.502Z,1338.75
2019-05-25T09:08:36.524Z,1265.63
2019-05-25T09:09:36.548Z,1243.13
2019-05-25T09:10:36.571Z,1192.50
2019-05-25T09:11:36.592Z,1074.38
2019-05-25T09:12:36.619Z,945.00
2019-05-25T09:13:36.639Z,900.00
2019-05-25T09:14:36.667Z,883.13
2019-05-25T09:15:36.685Z,793.13
2019-05-25T09:16:36.709Z,663.75
2019-05-25T09:17:36.733Z,624.38
2019-05-25T09:18:36.754Z,613.13
2019-05-25T09:19:36.779Z,596.25
2019-05-25T09:20:36.801Z,618.75
2019-05-25T09:21:36.824Z,691.88
2019-05-25T09:22:36.859Z,697.50
2019-05-25T09:23:36.870Z,787.50
2019-05-25T09:24:36.899Z,826.88
2019-05-25T09:25:36.918Z,742.50
2019-05-25T09:26:36.943Z,675.00
2019-05-25T09:27:36.964Z,675.00
2019-05-25T09:28:36.985Z,686.25
2019-05-25T09:29:37.008Z,725.63
2019-05-25T09:30:37.032Z,838.13
2019-05-25T09:31:37.054Z,860.63
2019-05-25T09:32:37.090Z,973.13
2019-05-25T09:33:37.101Z,1327.50
2019-05-25T09:34:37.129Z,1485.00
2019-05-25T09:35:37.150Z,1490.63
2019-05-25T09:36:37.170Z,1462.50
2019-05-25T09:37:37.193Z,1462.50
2019-05-25T09:38:37.218Z,1428.75
2019-05-25T09:39:37.239Z,1321.88
2019-05-25T09:40:37.264Z,1085.63
2019-05-25T09:41:37.288Z,973.13
2019-05-25T09:42:37.316Z,905.63
2019-05-25T09:43:37.332Z,798.75
2019-05-25T09:44:37.359Z,720.00
2019-05-25T09:45:37.377Z,669.38
2019-05-25T09:46:37.410Z,770.63
2019-05-25T09:47:37.430Z,883.13
2019-05-25T09:48:38.258Z,849.38
2019-05-25T09:49:37.480Z,736.88
2019-05-25T09:50:37.503Z,646.88
2019-05-25T09:51:37.524Z,601.88
2019-05-25T09:52:37.549Z,596.25
2019-05-25T09:53:37.573Z,652.50
2019-05-25T09:54:37.597Z,703.13
2019-05-25T09:55:37.619Z,759.38
2019-05-25T09:56:37.644Z,776.25
2019-05-25T09:57:40.887Z,793.13
2019-05-25T09:58:37.705Z,810.00
2019-05-25T09:59:37.714Z,871.88
2019-05-25T10:00:40.248Z,810.00
2019-05-25T10:01:37.763Z,826.88
2019-05-25T10:02:37.809Z,984.38
2019-05-25T10:03:37.806Z,1023.75
2019-05-25T10:04:37.833Z,1006.88
2019-05-25T10:05:37.858Z,995.63
2019-05-25T10:06:37.880Z,1023.75
2019-05-25T10:07:37.975Z,1091.25
2019-05-25T10:08:37.982Z,1040.63
2019-05-25T10:09:40.095Z,995.63
2019-05-25T10:10:38.040Z,1018.13
2019-05-25T10:11:38.057Z,1001.25
2019-05-25T10:12:38.042Z,1035.00
2019-05-25T10:13:38.051Z,990.00
2019-05-25T10:14:38.072Z,1018.13
2019-05-25T10:15:38.097Z,1046.25
2019-05-25T10:16:38.119Z,967.50
2019-05-25T10:17:38.147Z,894.38
2019-05-25T10:18:38.171Z,832.50
2019-05-25T10:19:38.192Z,793.13
2019-05-25T10:20:38.215Z,787.50
2019-05-25T10:21:38.244Z,877.50
2019-05-25T10:22:38.266Z,1102.50
2019-05-25T10:23:38.290Z,1293.75
2019-05-25T10:24:38.312Z,1220.63
2019-05-25T10:25:38.336Z,1029.38
2019-05-25T10:26:38.360Z,916.88
2019-05-25T10:27:38.383Z,838.13
2019-05-25T10:28:38.408Z,759.38
2019-05-25T10:29:38.438Z,680.63
2019-05-25T10:30:38.457Z,646.88
2019-05-25T10:31:38.482Z,663.75
2019-05-25T10:32:38.506Z,635.63
2019-05-25T10:33:38.686Z,613.13
2019-05-25T10:34:38.554Z,607.50
2019-05-25T10:35:38.579Z,613.13
2019-05-25T10:36:38.643Z,686.25
2019-05-25T10:37:38.625Z,759.38
2019-05-25T10:38:38.649Z,826.88
2019-05-25T10:39:38.679Z,883.13
2019-05-25T10:40:38.695Z,821.25
2019-05-25T10:41:38.726Z,821.25
2019-05-25T10:42:38.745Z,911.25
2019-05-25T10:43:38.767Z,984.38
2019-05-25T10:44:38.790Z,1068.75
2019-05-25T10:45:38.821Z,1012.50
2019-05-25T10:46:38.840Z,753.75
2019-05-25T10:47:38.861Z,675.00
2019-05-25T10:48:38.912Z,686.25
2019-05-25T10:49:38.913Z,658.13
2019-05-25T10:50:38.935Z,703.13
2019-05-25T10:51:38.958Z,815.63
2019-05-25T10:52:38.982Z,978.75
2019-05-25T10:53:39.003Z,939.38
2019-05-25T10:54:39.030Z,1271.25
2019-05-25T10:55:39.051Z,1321.88
2019-05-25T10:56:39.076Z,973.13
2019-05-25T10:57:39.105Z,1023.75
2019-05-25T10:58:39.127Z,1164.38
2019-05-25T10:59:52.018Z,1192.50
2019-05-25T11:00:39.172Z,1130.63
2019-05-25T11:01:39.197Z,1175.63
2019-05-25T11:02:39.276Z,1968.75
2019-05-25T11:03:39.239Z,1035.00
2019-05-25T11:04:39.272Z,984.38
2019-05-25T11:05:39.287Z,1023.75
2019-05-25T11:06:39.314Z,1220.63
2019-05-25T11:07:39.334Z,1366.88
2019-05-25T11:08:39.360Z,1305.00
2019-05-25T11:09:39.387Z,1243.13
2019-05-25T11:10:39.413Z,1102.50
2019-05-25T11:11:39.435Z,1035.00
2019-05-25T11:12:39.461Z,961.88
2019-05-25T11:13:39.484Z,984.38
2019-05-25T11:14:39.510Z,1096.88
2019-05-25T11:15:39.531Z,1141.88
2019-05-25T11:16:39.561Z,1231.88
2019-05-25T11:17:39.582Z,1389.38
2019-05-25T11:18:39.609Z,1288.13
2019-05-25T11:19:39.632Z,1428.75
2019-05-25T11:20:39.673Z,1417.50
2019-05-25T11:21:39.688Z,1383.75
2019-05-25T11:22:39.724Z,1428.75
2019-05-25T11:23:39.731Z,1406.25
2019-05-25T11:24:39.756Z,1732.50
2019-05-25T11:25:39.780Z,1575.00
2019-05-25T11:26:39.875Z,1597.50
2019-05-25T11:27:39.878Z,1406.25
2019-05-25T11:28:39.878Z,1344.38
2019-05-25T11:29:39.936Z,1383.75
2019-05-25T11:30:39.949Z,1631.25
2019-05-25T11:31:40.097Z,1648.13
2019-05-25T11:32:39.965Z,1996.88
2019-05-25T11:33:39.988Z,1884.38
2019-05-25T11:34:40.005Z,1850.63
2019-05-25T11:35:40.033Z,1738.13
2019-05-25T11:36:40.059Z,2441.25
2019-05-25T11:37:40.089Z,1805.63
2019-05-25T11:38:40.110Z,1665.00
2019-05-25T11:39:40.136Z,1496.25
2019-05-25T11:40:40.164Z,1355.63
2019-05-25T11:41:40.190Z,1288.13
2019-05-25T11:42:40.216Z,1316.25
2019-05-25T11:43:40.241Z,1316.25
2019-05-25T11:44:40.272Z,1260.00
2019-05-25T11:45:40.296Z,1366.88
2019-05-25T11:46:40.383Z,1558.13
2019-05-25T11:47:40.350Z,1428.75
2019-05-25T11:48:40.378Z,1428.75
2019-05-25T11:49:40.402Z,1305.00
2019-05-25T11:50:40.427Z,1153.13
2019-05-25T11:51:40.456Z,1237.50
2019-05-25T11:52:40.671Z,1327.50
2019-05-25T11:53:40.514Z,1890.00
2019-05-25T11:54:40.536Z,1293.75
2019-05-25T11:55:40.561Z,1074.38
2019-05-25T11:56:40.591Z,945.00
2019-05-25T11:57:40.613Z,883.13
2019-05-25T11:58:47.315Z,894.38
2019-05-25T11:59:40.665Z,900.00
2019-05-25T12:00:40.689Z,1063.13
2019-05-25T12:01:40.717Z,1153.13
2019-05-25T12:02:40.745Z,1080.00
2019-05-25T12:03:40.769Z,961.88
2019-05-25T12:04:40.799Z,916.88
2019-05-25T12:05:40.821Z,1068.75
2019-05-25T12:06:40.856Z,995.63
2019-05-25T12:07:44.431Z,1040.63
2019-05-25T12:08:40.898Z,1080.00
2019-05-25T12:09:40.926Z,922.50
2019-05-25T12:10:40.953Z,810.00
2019-05-25T12:11:40.978Z,725.63
2019-05-25T12:12:41.003Z,675.00
2019-05-25T12:13:41.031Z,652.50
2019-05-25T12:14:41.054Z,686.25
2019-05-25T12:15:41.087Z,742.50
2019-05-25T12:16:41.107Z,708.75
2019-05-25T12:17:41.137Z,641.25
2019-05-25T12:18:41.159Z,630.00
2019-05-25T12:19:41.179Z,641.25
2019-05-25T12:20:41.210Z,613.13
2019-05-25T12:21:41.231Z,562.50
2019-05-25T12:22:41.255Z,573.75
2019-05-25T12:23:41.281Z,669.38
2019-05-25T12:24:41.306Z,838.13
2019-05-25T12:25:41.330Z,1091.25
2019-05-25T12:26:41.356Z,1738.13
2019-05-25T12:27:41.381Z,2272.50
2019-05-25T12:28:41.404Z,1158.75
2019-05-25T12:29:41.447Z,1158.75
2019-05-25T12:30:41.576Z,1136.25
2019-05-25T12:31:41.478Z,1080.00
2019-05-25T12:32:41.507Z,1040.63
2019-05-25T12:33:41.530Z,961.88
2019-05-25T12:34:41.553Z,877.50
2019-05-25T12:35:44.990Z,838.13
2019-05-25T12:36:41.602Z,860.63